Time;durP1;ratioP1;P1;durP2;ratioP2;P2;SDS_P1;SDS_P2;PMS_P1;PMS_P2;Temp;Humidity;BMP_temperature;BMP_pressure;BME280_temperature;BME280_humidity;BME280_pressure;Samples;Min_cycle;Max_cycle;Signal;HPM_P1;HPM_P2
2024/04/07 00:01:02;;;;;;;;;0.67;0.67;;;;;;;;5085110;27;8833;-83
2024/04/07 00:03:27;;;;;;;;;0.75;0.75;;;;;;;;5114226;28;8738;-83
2024/04/07 00:05:53;;;;;;;;;2.00;0.00;;;;;;;;5092539;27;8834;-82
2024/04/07 00:08:18;;;;;;;;;3.00;2.00;;;;;;;;5075563;28;8916;-83
2024/04/07 00:10:45;;;;;;;;;3.00;0.00;;;;;;;;5096785;27;8919;-82
2024/04/07 00:13:11;;;;;;;;;1.60;0.00;;;;;;;;5107240;27;8792;-83
2024/04/07 00:15:36;;;;;;;;;2.00;0.00;;;;;;;;5109669;27;8887;-82
2024/04/07 00:18:02;;;;;;;;;1.00;0.00;;;;;;;;5112101;27;8816;-82
2024/04/07 00:20:30;;;;;;;;;2.00;0.00;;;;;;;;5095272;28;8780;-82
2024/04/07 00:23:02;;;;;;;;;0.00;0.00;;;;;;;;5113323;28;10673;-82
2024/04/07 00:25:28;;;;;;;;;0.75;0.00;;;;;;;;5112425;28;8836;-83
2024/04/07 00:27:55;;;;;;;;;1.67;0.67;;;;;;;;5105578;28;8824;-82
2024/04/07 00:30:21;;;;;;;;;1.00;0.00;;;;;;;;5119381;27;8830;-82
2024/04/07 00:32:47;;;;;;;;;1.25;1.00;;;;;;;;5116707;27;8820;-83
2024/04/07 00:35:14;;;;;;;;;0.00;0.00;;;;;;;;5101307;28;8769;-82
2024/04/07 00:37:40;;;;;;;;;0.00;0.00;;;;;;;;5131301;27;8735;-80
2024/04/07 00:40:09;;;;;;;;;1.00;0.00;;;;;;;;5112787;27;8835;-81
2024/04/07 00:42:34;;;;;;;;;0.00;0.00;;;;;;;;5122880;27;8782;-80
2024/04/07 00:45:00;;;;;;;;;0.00;0.00;;;;;;;;5131463;27;8806;-81
2024/04/07 00:47:28;;;;;;;;;0.50;0.00;;;;;;;;5096734;27;8824;-82
2024/04/07 00:49:55;;;;;;;;;0.00;0.00;;;;;;;;5084701;27;8801;-82
2024/04/07 00:52:21;;;;;;;;;1.00;0.00;;;;;;;;5093234;28;8792;-82
2024/04/07 00:54:57;;;;;;;;;3.00;1.25;;;;;;;;5111946;27;8935;-82
2024/04/07 00:57:27;;;;;;;;;0.00;0.00;;;;;;;;5094670;28;8828;-81
2024/04/07 00:59:57;;;;;;;;;0.00;0.00;;;;;;;;5094131;28;8785;-84
2024/04/07 01:02:23;;;;;;;;;0.00;0.00;;;;;;;;5098609;28;8850;-82
2024/04/07 01:04:48;;;;;;;;;0.00;0.00;;;;;;;;5129707;27;8807;-81
2024/04/07 01:07:16;;;;;;;;;0.00;0.00;;;;;;;;5101984;27;10002;-82
2024/04/07 01:09:43;;;;;;;;;0.20;0.20;;;;;;;;5131564;27;10218;-82
2024/04/07 01:12:15;;;;;;;;;0.00;0.00;;;;;;;;5094593;28;8832;-80
2024/04/07 01:14:40;;;;;;;;;1.00;0.00;;;;;;;;5097212;27;8897;-81
2024/04/07 01:17:06;;;;;;;;;0.00;0.00;;;;;;;;5118339;27;8929;-81
2024/04/07 01:19:32;;;;;;;;;0.00;0.00;;;;;;;;5132761;27;8854;-82
2024/04/07 01:21:57;;;;;;;;;1.00;0.00;;;;;;;;5082200;28;8809;-81
2024/04/07 01:24:22;;;;;;;;;1.00;0.00;;;;;;;;5118660;27;11362;-81
2024/04/07 01:26:48;;;;;;;;;0.00;0.00;;;;;;;;5116402;27;8798;-83
2024/04/07 01:29:19;;;;;;;;;0.00;0.00;;;;;;;;5131982;27;8781;-80
2024/04/07 01:31:45;;;;;;;;;0.40;0.00;;;;;;;;5107061;28;8737;-81
2024/04/07 01:34:10;;;;;;;;;0.33;0.00;;;;;;;;5118377;28;8931;-80
2024/04/07 01:36:36;;;;;;;;;0.00;0.00;;;;;;;;5098762;28;8829;-80
2024/04/07 01:39:05;;;;;;;;;0.20;0.00;;;;;;;;5112931;27;8809;-81
2024/04/07 01:41:44;;;;;;;;;;;;;;;;;;;;;
2024/04/07 01:44:16;;;;;;;;;0.80;0.00;;;;;;;;5139307;27;36052;-82
2024/04/07 01:46:41;;;;;;;;;0.00;0.00;;;;;;;;5111788;27;8743;-82
2024/04/07 01:49:07;;;;;;;;;0.00;0.00;;;;;;;;5122503;27;8863;-82
2024/04/07 01:51:56;;;;;;;;;0.00;0.00;;;;;;;;5136688;27;8807;-81
2024/04/07 01:54:32;;;;;;;;;0.00;0.00;;;;;;;;5092179;28;9142;-84
2024/04/07 01:56:57;;;;;;;;;0.00;0.00;;;;;;;;5105259;28;8753;-84
2024/04/07 01:59:23;;;;;;;;;1.00;0.00;;;;;;;;5111562;27;8842;-82
2024/04/07 02:01:48;;;;;;;;;0.00;0.00;;;;;;;;5121292;27;8807;-83
2024/04/07 02:04:15;;;;;;;;;0.00;0.00;;;;;;;;5133577;27;8798;-83
2024/04/07 02:06:40;;;;;;;;;0.00;0.00;;;;;;;;5121862;27;9683;-82
2024/04/07 02:09:06;;;;;;;;;0.00;0.00;;;;;;;;5132193;27;8812;-83
2024/04/07 02:11:31;;;;;;;;;0.33;0.00;;;;;;;;5113517;27;8906;-83
2024/04/07 02:13:59;;;;;;;;;0.33;0.00;;;;;;;;5139970;27;8826;-82
2024/04/07 02:16:26;;;;;;;;;0.00;0.00;;;;;;;;5110214;28;8800;-83
2024/04/07 02:18:52;;;;;;;;;1.20;0.00;;;;;;;;5136014;27;8857;-84
2024/04/07 02:21:17;;;;;;;;;0.00;0.00;;;;;;;;5106585;28;8836;-84
2024/04/07 02:23:43;;;;;;;;;0.75;0.00;;;;;;;;5128054;27;8875;-84
2024/04/07 02:26:09;;;;;;;;;0.33;0.00;;;;;;;;5106912;27;8806;-84
2024/04/07 02:28:34;;;;;;;;;0.00;0.00;;;;;;;;5124429;27;8893;-83
2024/04/07 02:31:00;;;;;;;;;0.00;0.00;;;;;;;;5104620;28;8859;-83
2024/04/07 02:33:25;;;;;;;;;0.00;0.00;;;;;;;;5115108;27;8914;-83
2024/04/07 02:35:56;;;;;;;;;0.00;0.00;;;;;;;;5109983;27;8847;-83
2024/04/07 02:38:21;;;;;;;;;0.00;0.00;;;;;;;;5126768;28;8825;-81
2024/04/07 02:40:47;;;;;;;;;0.00;0.00;;;;;;;;5110193;28;8860;-84
2024/04/07 02:43:15;;;;;;;;;0.00;0.00;;;;;;;;5113449;27;8825;-84
2024/04/07 02:48:24;;;;;;;;;0.00;0.00;;;;;;;;5122800;27;8812;-83
2024/04/07 02:50:50;;;;;;;;;0.00;0.00;;;;;;;;5126516;27;9007;-82
2024/04/07 02:53:15;;;;;;;;;0.00;0.00;;;;;;;;5134865;27;8775;-83
2024/04/07 02:55:40;;;;;;;;;0.00;0.00;;;;;;;;5136625;27;8883;-82
2024/04/07 02:58:05;;;;;;;;;1.00;0.00;;;;;;;;5135411;27;8828;-84
2024/04/07 03:00:31;;;;;;;;;0.00;0.00;;;;;;;;5104211;28;8831;-82
2024/04/07 03:02:56;;;;;;;;;0.67;0.00;;;;;;;;5127134;28;8801;-84
2024/04/07 03:05:22;;;;;;;;;0.00;0.00;;;;;;;;5140850;27;8835;-83
2024/04/07 03:07:50;;;;;;;;;1.00;0.00;;;;;;;;5139387;27;8794;-84
2024/04/07 03:10:16;;;;;;;;;0.00;0.00;;;;;;;;5110400;28;8723;-83
2024/04/07 03:12:41;;;;;;;;;0.33;0.00;;;;;;;;5118885;27;8930;-82
2024/04/07 03:15:07;;;;;;;;;0.67;0.00;;;;;;;;5139047;27;9617;-83
2024/04/07 03:17:32;;;;;;;;;0.00;0.00;;;;;;;;5136016;27;8818;-83
2024/04/07 03:19:57;;;;;;;;;0.00;0.00;;;;;;;;5123331;27;8864;-83
2024/04/07 03:22:23;;;;;;;;;0.00;0.00;;;;;;;;5116353;28;8805;-83
2024/04/07 03:24:48;;;;;;;;;0.00;0.00;;;;;;;;5115727;28;8934;-83
2024/04/07 03:27:13;;;;;;;;;0.00;0.00;;;;;;;;5128193;27;8835;-83
2024/04/07 03:29:39;;;;;;;;;1.00;0.00;;;;;;;;5125387;27;9695;-84
2024/04/07 03:32:04;;;;;;;;;1.00;0.00;;;;;;;;5119460;27;9559;-84
2024/04/07 03:34:30;;;;;;;;;0.00;0.00;;;;;;;;5121213;27;9525;-82
2024/04/07 03:36:55;;;;;;;;;0.67;0.67;;;;;;;;5124863;27;8826;-82
2024/04/07 03:39:20;;;;;;;;;0.00;0.00;;;;;;;;5138743;27;8848;-82
2024/04/07 03:41:46;;;;;;;;;0.00;0.00;;;;;;;;5135135;27;8781;-82
2024/04/07 03:44:11;;;;;;;;;0.00;0.00;;;;;;;;5129730;27;8944;-83
2024/04/07 03:46:39;;;;;;;;;1.00;0.00;;;;;;;;5119159;27;8800;-82
2024/04/07 03:49:05;;;;;;;;;0.50;0.00;;;;;;;;5119881;27;8787;-81
2024/04/07 03:51:33;;;;;;;;;1.00;0.00;;;;;;;;5126405;27;8798;-80
2024/04/07 03:53:58;;;;;;;;;0.00;0.00;;;;;;;;5114009;27;8915;-83
2024/04/07 03:56:23;;;;;;;;;3.00;2.00;;;;;;;;5112913;27;8816;-82
2024/04/07 03:58:48;;;;;;;;;0.67;0.00;;;;;;;;5111378;27;9625;-82
2024/04/07 04:01:15;;;;;;;;;0.00;0.00;;;;;;;;5115584;27;8831;-82
2024/04/07 04:03:40;;;;;;;;;0.00;0.00;;;;;;;;5126927;27;8734;-82
2024/04/07 04:06:06;;;;;;;;;0.33;0.00;;;;;;;;5130726;27;8779;-81
2024/04/07 04:08:31;;;;;;;;;0.00;0.00;;;;;;;;5121574;27;8981;-82
2024/04/07 04:10:56;;;;;;;;;1.00;0.00;;;;;;;;5125251;27;8785;-81
2024/04/07 04:13:22;;;;;;;;;1.00;0.00;;;;;;;;5112312;27;9151;-82
2024/04/07 04:15:47;;;;;;;;;0.00;0.00;;;;;;;;5102015;27;8845;-82
2024/04/07 04:18:15;;;;;;;;;1.67;0.00;;;;;;;;5115898;27;8837;-81
2024/04/07 04:20:40;;;;;;;;;0.00;0.00;;;;;;;;5118513;27;8739;-82
2024/04/07 04:23:07;;;;;;;;;0.00;0.00;;;;;;;;5110618;27;8812;-82
2024/04/07 04:25:32;;;;;;;;;1.00;0.00;;;;;;;;5117880;27;8891;-80
2024/04/07 04:27:57;;;;;;;;;1.00;0.00;;;;;;;;5113973;27;8813;-82
2024/04/07 04:30:23;;;;;;;;;0.00;0.00;;;;;;;;5112823;27;8917;-81
2024/04/07 04:32:48;;;;;;;;;0.00;0.00;;;;;;;;5110159;27;8906;-83
2024/04/07 04:35:14;;;;;;;;;0.00;0.00;;;;;;;;5109797;27;11505;-81
2024/04/07 04:37:41;;;;;;;;;0.00;0.00;;;;;;;;5111877;27;8836;-81
2024/04/07 04:40:08;;;;;;;;;0.00;0.00;;;;;;;;5119033;27;8801;-81
2024/04/07 04:42:33;;;;;;;;;1.00;0.00;;;;;;;;5114322;27;8794;-82
2024/04/07 04:44:59;;;;;;;;;0.00;0.00;;;;;;;;5117996;27;8806;-82
2024/04/07 04:47:24;;;;;;;;;0.00;0.00;;;;;;;;5125721;27;8818;-83
2024/04/07 04:49:49;;;;;;;;;0.00;0.00;;;;;;;;5111016;27;8798;-82
2024/04/07 04:52:14;;;;;;;;;0.00;0.00;;;;;;;;5120302;27;8951;-83
2024/04/07 04:54:40;;;;;;;;;0.00;0.00;;;;;;;;5124574;27;8818;-82
2024/04/07 04:57:05;;;;;;;;;0.00;0.00;;;;;;;;5125933;27;8905;-84
2024/04/07 04:59:30;;;;;;;;;0.00;0.00;;;;;;;;5117024;27;8829;-85
2024/04/07 05:01:55;;;;;;;;;0.00;0.00;;;;;;;;5113541;28;8848;-78
2024/04/07 05:04:21;;;;;;;;;0.00;0.00;;;;;;;;5111196;27;8866;-80
2024/04/07 05:06:46;;;;;;;;;0.00;0.00;;;;;;;;5112870;27;10186;-82
2024/04/07 05:09:12;;;;;;;;;1.67;0.00;;;;;;;;5112005;27;8853;-82
2024/04/07 05:11:37;;;;;;;;;0.75;0.00;;;;;;;;5113406;27;8939;-81
2024/04/07 05:14:03;;;;;;;;;0.00;0.00;;;;;;;;5111395;27;8804;-82
2024/04/07 05:16:28;;;;;;;;;0.00;0.00;;;;;;;;5103265;28;8855;-83
2024/04/07 05:18:53;;;;;;;;;0.00;0.00;;;;;;;;5094770;28;8855;-81
2024/04/07 05:21:18;;;;;;;;;0.00;0.00;;;;;;;;5099044;28;8828;-83
2024/04/07 05:23:44;;;;;;;;;0.00;0.00;;;;;;;;5091219;28;8804;-82
2024/04/07 05:26:13;;;;;;;;;0.00;0.00;;;;;;;;5072224;28;8821;-83
2024/04/07 05:28:39;;;;;;;;;0.00;0.00;;;;;;;;5091099;28;8787;-84
2024/04/07 05:31:05;;;;;;;;;2.75;0.00;;;;;;;;5075031;28;8906;-84
2024/04/07 05:33:32;;;;;;;;;0.00;0.00;;;;;;;;5084089;28;8943;-83
2024/04/07 05:35:58;;;;;;;;;0.00;0.00;;;;;;;;5074006;28;8791;-75
2024/04/07 05:38:23;;;;;;;;;0.00;0.00;;;;;;;;5095945;28;8853;-72
2024/04/07 05:40:53;;;;;;;;;0.33;0.00;;;;;;;;5078636;28;8826;-72
2024/04/07 05:43:18;;;;;;;;;0.00;0.00;;;;;;;;5100583;28;8785;-75
2024/04/07 05:45:44;;;;;;;;;1.00;0.00;;;;;;;;5092278;28;8935;-73
2024/04/07 05:48:10;;;;;;;;;0.67;0.00;;;;;;;;5073515;28;8803;-78
2024/04/07 05:50:36;;;;;;;;;0.00;0.00;;;;;;;;5074496;28;8797;-73
2024/04/07 05:53:01;;;;;;;;;1.67;0.00;;;;;;;;5069728;28;8848;-73
2024/04/07 05:55:26;;;;;;;;;1.00;0.00;;;;;;;;5089784;28;8832;-74
2024/04/07 05:57:52;;;;;;;;;0.00;0.00;;;;;;;;5070480;28;8848;-75
2024/04/07 06:00:18;;;;;;;;;1.00;0.00;;;;;;;;5085325;28;8855;-75
2024/04/07 06:02:43;;;;;;;;;1.00;0.00;;;;;;;;5089116;28;8783;-76
2024/04/07 06:05:08;;;;;;;;;3.33;3.00;;;;;;;;5081570;28;8845;-74
2024/04/07 06:07:34;;;;;;;;;0.00;0.00;;;;;;;;5087866;28;8806;-76
2024/04/07 06:09:59;;;;;;;;;6.00;5.00;;;;;;;;5085203;28;8873;-73
2024/04/07 06:12:24;;;;;;;;;2.00;1.00;;;;;;;;5072124;28;9398;-76
2024/04/07 06:14:49;;;;;;;;;1.33;0.00;;;;;;;;5092606;28;8843;-76
2024/04/07 06:17:16;;;;;;;;;1.00;1.00;;;;;;;;5072516;28;22667;-76
2024/04/07 06:19:41;;;;;;;;;1.00;1.00;;;;;;;;5066278;28;40576;-76
2024/04/07 06:22:07;;;;;;;;;0.33;0.00;;;;;;;;5070678;28;28508;-75
2024/04/07 06:24:32;;;;;;;;;0.00;0.00;;;;;;;;5059031;28;29092;-77
2024/04/07 06:26:57;;;;;;;;;0.00;0.00;;;;;;;;5069233;28;28643;-75
2024/04/07 06:29:23;;;;;;;;;0.00;0.00;;;;;;;;5052205;28;28615;-74
2024/04/07 06:31:48;;;;;;;;;0.00;0.00;;;;;;;;5067328;28;28784;-76
2024/04/07 06:34:14;;;;;;;;;0.00;0.00;;;;;;;;5073759;28;28968;-75
2024/04/07 06:36:39;;;;;;;;;0.33;0.33;;;;;;;;5081688;28;28723;-75
2024/04/07 06:39:04;;;;;;;;;1.00;0.00;;;;;;;;5066045;28;28553;-74
2024/04/07 06:41:29;;;;;;;;;0.75;0.00;;;;;;;;5072159;28;28743;-76
2024/04/07 06:43:55;;;;;;;;;0.00;0.00;;;;;;;;5069004;28;29696;-76
2024/04/07 06:46:21;;;;;;;;;0.50;0.00;;;;;;;;5074280;28;28776;-74
2024/04/07 06:48:46;;;;;;;;;0.00;0.00;;;;;;;;5072194;28;28474;-73
2024/04/07 06:51:11;;;;;;;;;0.00;0.00;;;;;;;;5072401;28;29183;-75
2024/04/07 06:53:37;;;;;;;;;0.00;0.00;;;;;;;;5074250;28;28525;-74
2024/04/07 06:56:02;;;;;;;;;0.00;0.00;;;;;;;;5072932;28;8929;-73
2024/04/07 06:58:30;;;;;;;;;0.00;0.00;;;;;;;;5078682;28;8866;-76
2024/04/07 07:00:56;;;;;;;;;0.00;0.00;;;;;;;;5080584;28;8837;-75
2024/04/07 07:03:22;;;;;;;;;0.00;0.00;;;;;;;;5066390;28;42423;-75
2024/04/07 07:05:47;;;;;;;;;1.00;0.00;;;;;;;;5060171;28;43747;-75
2024/04/07 07:08:13;;;;;;;;;0.00;0.00;;;;;;;;5062539;28;41423;-76
2024/04/07 07:10:38;;;;;;;;;1.00;0.00;;;;;;;;5062638;28;42616;-75
2024/04/07 07:13:04;;;;;;;;;1.00;0.00;;;;;;;;5069500;28;45553;-75
2024/04/07 07:15:29;;;;;;;;;0.00;0.00;;;;;;;;5038745;28;45288;-75
2024/04/07 07:17:54;;;;;;;;;9.67;6.67;;;;;;;;5039764;28;44667;-76
2024/04/07 07:20:20;;;;;;;;;2.00;0.67;;;;;;;;5040584;28;45319;-76
2024/04/07 07:22:45;;;;;;;;;0.00;0.00;;;;;;;;5065406;28;28962;-75
2024/04/07 07:25:10;;;;;;;;;1.00;0.00;;;;;;;;5062866;28;29059;-76
2024/04/07 07:27:35;;;;;;;;;0.67;0.00;;;;;;;;5061735;28;28856;-80
2024/04/07 07:30:01;;;;;;;;;0.33;0.33;;;;;;;;5044937;28;30931;-74
2024/04/07 07:32:26;;;;;;;;;1.00;0.00;;;;;;;;5059782;28;29258;-78
2024/04/07 07:34:51;;;;;;;;;0.00;0.00;;;;;;;;5062690;28;29485;-73
2024/04/07 07:37:17;;;;;;;;;1.00;0.00;;;;;;;;5058069;28;28865;-74
2024/04/07 07:39:42;;;;;;;;;0.00;0.00;;;;;;;;5062554;28;28576;-75
2024/04/07 07:42:07;;;;;;;;;0.00;0.00;;;;;;;;5047783;28;28585;-75
2024/04/07 07:44:32;;;;;;;;;0.00;0.00;;;;;;;;5055639;28;28862;-74
2024/04/07 07:46:58;;;;;;;;;0.00;0.00;;;;;;;;5047761;28;28788;-76
2024/04/07 07:49:23;;;;;;;;;0.00;0.00;;;;;;;;5050410;28;29474;-74
2024/04/07 07:51:48;;;;;;;;;0.00;0.00;;;;;;;;5050289;28;29051;-75
2024/04/07 07:54:13;;;;;;;;;0.00;0.00;;;;;;;;5064045;28;28678;-72
2024/04/07 07:56:38;;;;;;;;;0.00;0.00;;;;;;;;5067188;28;28472;-73
2024/04/07 07:59:04;;;;;;;;;1.00;0.00;;;;;;;;5047650;28;29285;-77
2024/04/07 08:01:30;;;;;;;;;1.00;0.00;;;;;;;;5045223;28;30091;-77
2024/04/07 08:03:55;;;;;;;;;0.00;0.00;;;;;;;;5049301;28;30505;-77
2024/04/07 08:06:20;;;;;;;;;0.00;0.00;;;;;;;;5056388;28;28600;-77
2024/04/07 08:08:46;;;;;;;;;0.75;0.00;;;;;;;;5064238;28;28734;-77
2024/04/07 08:11:11;;;;;;;;;0.00;0.00;;;;;;;;5066987;28;28969;-80
2024/04/07 08:13:36;;;;;;;;;1.00;0.00;;;;;;;;5047327;28;28732;-79
2024/04/07 08:16:02;;;;;;;;;1.00;0.00;;;;;;;;5054735;28;28742;-77
2024/04/07 08:18:27;;;;;;;;;0.00;0.00;;;;;;;;5065668;28;28591;-77
2024/04/07 08:20:52;;;;;;;;;1.00;0.00;;;;;;;;5062781;28;29529;-77
2024/04/07 08:23:19;;;;;;;;;0.00;0.00;;;;;;;;5056252;28;28667;-77
2024/04/07 08:25:45;;;;;;;;;0.00;0.00;;;;;;;;5059939;28;28568;-78
2024/04/07 08:28:10;;;;;;;;;1.00;0.00;;;;;;;;5066487;28;29399;-78
2024/04/07 08:30:36;;;;;;;;;0.50;0.00;;;;;;;;5092994;28;8841;-77
2024/04/07 08:33:01;;;;;;;;;0.00;0.00;;;;;;;;5076117;28;27979;-77
2024/04/07 08:35:26;;;;;;;;;0.00;0.00;;;;;;;;5039215;28;28766;-77
2024/04/07 08:37:52;;;;;;;;;1.00;0.00;;;;;;;;5062847;28;28801;-77
2024/04/07 08:40:18;;;;;;;;;0.20;0.00;;;;;;;;5048885;28;29813;-79
2024/04/07 08:42:43;;;;;;;;;0.00;0.00;;;;;;;;5063611;28;28683;-78
2024/04/07 08:45:09;;;;;;;;;0.00;0.00;;;;;;;;5062583;28;28601;-78
2024/04/07 08:47:35;;;;;;;;;0.00;0.00;;;;;;;;5049591;28;30145;-78
2024/04/07 08:50:02;;;;;;;;;0.00;0.00;;;;;;;;5065653;28;29111;-77
2024/04/07 08:52:28;;;;;;;;;0.60;0.00;;;;;;;;5068546;28;28564;-77
2024/04/07 08:54:54;;;;;;;;;1.00;0.00;;;;;;;;5047060;28;28624;-77
2024/04/07 08:57:19;;;;;;;;;0.00;0.00;;;;;;;;5065989;28;28778;-77
2024/04/07 08:59:46;;;;;;;;;0.25;0.00;;;;;;;;5065805;28;28599;-78
2024/04/07 09:02:13;;;;;;;;;0.20;0.00;;;;;;;;5066402;28;28612;-78
2024/04/07 09:04:38;;;;;;;;;0.00;0.00;;;;;;;;5061650;28;28489;-79
2024/04/07 09:07:04;;;;;;;;;1.00;0.00;;;;;;;;5049543;28;30198;-79
2024/04/07 09:09:33;;;;;;;;;0.00;0.00;;;;;;;;5065917;28;28588;-77
2024/04/07 09:11:58;;;;;;;;;1.00;0.00;;;;;;;;5060086;28;28844;-78
2024/04/07 09:14:33;;;;;;;;;0.33;0.00;;;;;;;;5073612;28;28572;-78
2024/04/07 09:17:02;;;;;;;;;1.00;0.00;;;;;;;;5055568;28;28876;-78
2024/04/07 09:19:30;;;;;;;;;1.00;0.00;;;;;;;;5066738;28;28848;-79
2024/04/07 09:21:56;;;;;;;;;0.00;0.00;;;;;;;;5069530;28;28850;-78
2024/04/07 09:24:21;;;;;;;;;0.00;0.00;;;;;;;;5063326;28;28906;-75
2024/04/07 09:26:47;;;;;;;;;1.00;0.00;;;;;;;;5064473;28;28728;-76
2024/04/07 09:29:12;;;;;;;;;0.00;0.00;;;;;;;;5053340;28;30303;-75
2024/04/07 09:31:37;;;;;;;;;0.00;0.00;;;;;;;;5066480;28;28643;-75
2024/04/07 09:34:03;;;;;;;;;0.00;0.00;;;;;;;;5063383;28;28497;-75
2024/04/07 09:36:28;;;;;;;;;0.00;0.00;;;;;;;;5064798;28;28494;-74
2024/04/07 09:38:53;;;;;;;;;1.50;0.00;;;;;;;;5057008;28;30204;-73
2024/04/07 09:41:19;;;;;;;;;0.00;0.00;;;;;;;;5053981;28;28730;-74
2024/04/07 09:43:47;;;;;;;;;0.00;0.00;;;;;;;;5070582;28;28462;-75
2024/04/07 09:46:14;;;;;;;;;0.00;0.00;;;;;;;;5065085;28;28990;-75
2024/04/07 09:48:39;;;;;;;;;1.60;0.00;;;;;;;;5037601;28;30081;-76
2024/04/07 09:51:05;;;;;;;;;0.00;0.00;;;;;;;;5061433;28;28478;-74
2024/04/07 09:53:36;;;;;;;;;0.50;0.00;;;;;;;;5063420;28;28607;-74
2024/04/07 09:56:03;;;;;;;;;0.00;0.00;;;;;;;;5084306;28;28731;-75
2024/04/07 09:58:28;;;;;;;;;0.00;0.00;;;;;;;;5069820;28;29429;-74
2024/04/07 10:00:53;;;;;;;;;0.00;0.00;;;;;;;;5069334;28;28545;-75
2024/04/07 10:03:19;;;;;;;;;0.00;0.00;;;;;;;;5029520;28;28833;-76
2024/04/07 10:05:44;;;;;;;;;0.50;0.00;;;;;;;;5077170;28;28592;-75
2024/04/07 10:08:10;;;;;;;;;0.50;0.50;;;;;;;;5069477;28;28606;-73
2024/04/07 10:10:37;;;;;;;;;1.00;0.00;;;;;;;;5063284;27;28486;-74
2024/04/07 10:13:09;;;;;;;;;1.00;0.00;;;;;;;;5027223;28;28781;-73
2024/04/07 10:15:35;;;;;;;;;0.20;0.00;;;;;;;;5055558;28;28819;-76
2024/04/07 10:18:09;;;;;;;;;0.00;0.00;;;;;;;;5057004;28;28710;-75
2024/04/07 10:20:34;;;;;;;;;0.40;0.00;;;;;;;;5047585;28;28521;-76
2024/04/07 10:23:00;;;;;;;;;0.00;0.00;;;;;;;;5050005;28;28853;-75
2024/04/07 10:25:32;;;;;;;;;1.00;0.00;;;;;;;;5050269;28;29543;-74
2024/04/07 10:27:59;;;;;;;;;0.40;0.00;;;;;;;;5056203;28;28561;-76
2024/04/07 10:30:24;;;;;;;;;0.00;0.00;;;;;;;;5058417;28;28887;-74
2024/04/07 10:32:53;;;;;;;;;0.00;0.00;;;;;;;;5058501;28;28980;-75
2024/04/07 10:35:22;;;;;;;;;0.00;0.00;;;;;;;;5068202;28;28493;-75
2024/04/07 10:37:49;;;;;;;;;0.20;0.00;;;;;;;;5050223;28;29833;-75
2024/04/07 10:40:16;;;;;;;;;0.60;0.00;;;;;;;;5060700;28;28934;-76
2024/04/07 10:42:41;;;;;;;;;1.00;0.00;;;;;;;;5064931;28;28912;-75
2024/04/07 10:45:06;;;;;;;;;1.00;0.00;;;;;;;;5057967;28;28909;-74
2024/04/07 10:47:32;;;;;;;;;0.25;0.00;;;;;;;;5056370;28;28499;-76
2024/04/07 10:49:58;;;;;;;;;0.00;0.00;;;;;;;;5054822;28;28509;-75
2024/04/07 10:52:26;;;;;;;;;0.00;0.00;;;;;;;;5061743;28;28640;-74
2024/04/07 10:54:55;;;;;;;;;1.00;0.00;;;;;;;;5052197;28;28650;-75
2024/04/07 10:57:20;;;;;;;;;0.00;0.00;;;;;;;;5043935;28;29302;-75
2024/04/07 10:59:46;;;;;;;;;0.00;0.00;;;;;;;;5057016;28;28619;-76
2024/04/07 11:02:11;;;;;;;;;0.00;0.00;;;;;;;;5061149;28;28859;-74
2024/04/07 11:04:36;;;;;;;;;1.00;0.00;;;;;;;;5065573;28;29021;-75
2024/04/07 11:07:02;;;;;;;;;0.00;0.00;;;;;;;;5079342;28;29058;-75
2024/04/07 11:09:28;;;;;;;;;1.40;0.00;;;;;;;;5067671;28;29017;-74
2024/04/07 11:11:54;;;;;;;;;0.00;0.00;;;;;;;;5047091;28;28901;-74
2024/04/07 11:14:23;;;;;;;;;0.00;0.00;;;;;;;;5061640;28;28839;-75
2024/04/07 11:16:50;;;;;;;;;0.00;0.00;;;;;;;;5069915;28;28393;-75
2024/04/07 11:19:16;;;;;;;;;1.00;0.00;;;;;;;;5049618;28;30331;-76
2024/04/07 11:21:41;;;;;;;;;0.00;0.00;;;;;;;;5055689;28;28481;-75
2024/04/07 11:24:07;;;;;;;;;1.25;0.00;;;;;;;;5068421;28;28752;-76
2024/04/07 11:26:32;;;;;;;;;1.00;0.00;;;;;;;;5055339;28;30635;-75
2024/04/07 11:28:58;;;;;;;;;2.25;0.00;;;;;;;;5062115;28;29376;-75
2024/04/07 11:31:25;;;;;;;;;1.00;0.00;;;;;;;;5050617;28;28884;-74
2024/04/07 11:33:52;;;;;;;;;0.00;0.00;;;;;;;;5062399;28;28510;-74
2024/04/07 11:36:18;;;;;;;;;0.00;0.00;;;;;;;;5054084;28;29886;-76
2024/04/07 11:38:43;;;;;;;;;1.00;0.00;;;;;;;;5067800;28;28548;-75
2024/04/07 11:41:08;;;;;;;;;0.00;0.00;;;;;;;;5066952;28;28731;-76
2024/04/07 11:43:34;;;;;;;;;0.25;0.25;;;;;;;;5045146;28;28596;-76
2024/04/07 11:45:59;;;;;;;;;0.75;0.75;;;;;;;;5059817;28;28881;-75
2024/04/07 11:48:26;;;;;;;;;2.00;1.00;;;;;;;;5070601;28;28526;-75
2024/04/07 11:50:52;;;;;;;;;0.00;0.00;;;;;;;;5078444;28;28584;-74
2024/04/07 11:53:17;;;;;;;;;0.75;0.00;;;;;;;;5053493;28;29168;-74
2024/04/07 11:55:42;;;;;;;;;4.75;1.00;;;;;;;;5084212;28;28606;-75
2024/04/07 11:58:09;;;;;;;;;1.00;0.00;;;;;;;;5062166;28;28553;-75
2024/04/07 12:00:34;;;;;;;;;2.60;0.00;;;;;;;;5073462;28;28429;-74
2024/04/07 12:02:59;;;;;;;;;0.00;0.00;;;;;;;;5072707;28;28673;-74
2024/04/07 12:05:25;;;;;;;;;1.00;0.00;;;;;;;;5073500;28;28779;-75
2024/04/07 12:07:50;;;;;;;;;2.50;0.00;;;;;;;;5064710;28;28998;-74
2024/04/07 12:10:15;;;;;;;;;3.75;1.00;;;;;;;;5061025;28;28359;-73
2024/04/07 12:12:40;;;;;;;;;0.75;0.50;;;;;;;;5068167;27;28963;-73
2024/04/07 12:15:06;;;;;;;;;0.00;0.00;;;;;;;;5073009;28;28519;-76
2024/04/07 12:17:31;;;;;;;;;0.00;0.00;;;;;;;;5054740;28;28812;-75
2024/04/07 12:19:56;;;;;;;;;0.00;0.00;;;;;;;;5077140;28;28928;-75
2024/04/07 12:22:22;;;;;;;;;2.00;0.50;;;;;;;;5072367;28;28819;-76
2024/04/07 12:24:48;;;;;;;;;0.00;0.00;;;;;;;;5072227;28;29980;-75
2024/04/07 12:27:13;;;;;;;;;1.20;0.00;;;;;;;;5071198;28;28466;-74
2024/04/07 12:29:42;;;;;;;;;3.00;0.50;;;;;;;;5055090;28;28849;-75
2024/04/07 12:32:08;;;;;;;;;0.00;0.00;;;;;;;;5079008;28;28946;-75
2024/04/07 12:34:33;;;;;;;;;0.00;0.00;;;;;;;;5069995;28;28445;-74
2024/04/07 12:36:59;;;;;;;;;0.75;0.75;;;;;;;;5075955;28;28486;-75
2024/04/07 12:39:24;;;;;;;;;0.00;0.00;;;;;;;;5060581;28;28578;-75
2024/04/07 12:41:49;;;;;;;;;0.00;0.00;;;;;;;;5072146;28;28731;-76
2024/04/07 12:44:15;;;;;;;;;3.00;0.50;;;;;;;;5073292;28;28933;-76
2024/04/07 12:46:42;;;;;;;;;1.25;0.50;;;;;;;;5069000;28;28488;-75
2024/04/07 12:49:07;;;;;;;;;0.40;0.40;;;;;;;;5076374;28;28486;-75
2024/04/07 12:51:32;;;;;;;;;1.50;1.50;;;;;;;;5071914;28;28544;-76
2024/04/07 12:53:57;;;;;;;;;0.00;0.00;;;;;;;;5053593;28;29881;-76
2024/04/07 12:56:23;;;;;;;;;1.00;0.00;;;;;;;;5083697;28;28572;-75
2024/04/07 12:58:48;;;;;;;;;0.00;0.00;;;;;;;;5083468;28;28809;-75
2024/04/07 13:01:13;;;;;;;;;1.00;1.00;;;;;;;;5075192;28;28833;-75
2024/04/07 13:03:38;;;;;;;;;0.00;0.00;;;;;;;;5056637;28;30905;-76
2024/04/07 13:06:04;;;;;;;;;1.00;0.00;;;;;;;;5075383;28;28965;-75
2024/04/07 13:08:31;;;;;;;;;0.00;0.00;;;;;;;;5082462;28;28466;-75
2024/04/07 13:10:59;;;;;;;;;3.00;1.80;;;;;;;;5058789;28;30033;-75
2024/04/07 13:13:24;;;;;;;;;0.00;0.00;;;;;;;;5084860;28;28835;-74
2024/04/07 13:15:52;;;;;;;;;1.25;1.00;;;;;;;;5086747;28;28744;-75
2024/04/07 13:18:18;;;;;;;;;0.00;0.00;;;;;;;;5082311;28;28763;-76
2024/04/07 13:20:43;;;;;;;;;1.00;0.00;;;;;;;;5068916;28;28747;-75
2024/04/07 13:23:08;;;;;;;;;0.25;0.00;;;;;;;;5068487;28;28428;-76
2024/04/07 13:25:33;;;;;;;;;1.75;0.00;;;;;;;;5068930;28;28548;-76
2024/04/07 13:27:59;;;;;;;;;2.00;0.75;;;;;;;;5071259;28;29022;-76
2024/04/07 13:30:25;;;;;;;;;2.00;1.00;;;;;;;;5073306;28;28432;-74
2024/04/07 13:32:50;;;;;;;;;0.20;0.20;;;;;;;;5084450;28;28884;-75
2024/04/07 13:35:16;;;;;;;;;1.00;1.00;;;;;;;;5059598;28;29666;-76
2024/04/07 13:37:41;;;;;;;;;0.00;0.00;;;;;;;;5070343;28;28862;-76
2024/04/07 13:40:06;;;;;;;;;2.33;2.33;;;;;;;;5065514;28;28624;-74
2024/04/07 13:42:31;;;;;;;;;2.00;2.00;;;;;;;;5071204;28;28558;-77
2024/04/07 13:44:58;;;;;;;;;1.00;0.00;;;;;;;;5054303;28;28545;-75
2024/04/07 13:47:23;;;;;;;;;1.00;1.00;;;;;;;;5045975;28;28810;-75
2024/04/07 13:49:50;;;;;;;;;1.25;1.00;;;;;;;;5086742;28;28837;-75
2024/04/07 13:52:16;;;;;;;;;1.80;0.00;;;;;;;;5075015;28;28594;-74
2024/04/07 13:54:41;;;;;;;;;1.00;1.00;;;;;;;;5058226;28;28576;-75
2024/04/07 13:57:06;;;;;;;;;0.00;0.00;;;;;;;;5079013;28;28499;-76
2024/04/07 13:59:32;;;;;;;;;0.50;0.50;;;;;;;;5053563;28;29598;-78
2024/04/07 14:01:57;;;;;;;;;0.80;0.20;;;;;;;;5073110;28;29450;-79
2024/04/07 14:04:22;;;;;;;;;1.00;1.00;;;;;;;;5063096;28;28449;-78
2024/04/07 14:06:48;;;;;;;;;2.75;1.00;;;;;;;;5081827;28;28538;-77
2024/04/07 14:09:13;;;;;;;;;1.75;1.25;;;;;;;;5082846;28;28513;-78
2024/04/07 14:11:40;;;;;;;;;1.00;1.00;;;;;;;;5070412;28;28536;-78
2024/04/07 14:14:07;;;;;;;;;1.60;0.60;;;;;;;;5073786;27;29026;-77
2024/04/07 14:16:35;;;;;;;;;1.00;0.80;;;;;;;;5073035;28;28549;-76
2024/04/07 14:19:00;;;;;;;;;1.20;0.00;;;;;;;;5053794;28;29994;-77
2024/04/07 14:21:34;;;;;;;;;4.25;1.00;;;;;;;;5078034;28;28888;-79
2024/04/07 14:23:59;;;;;;;;;0.40;0.00;;;;;;;;5077346;28;28441;-78
2024/04/07 14:26:25;;;;;;;;;3.00;1.00;;;;;;;;5071850;28;28664;-78
2024/04/07 14:28:50;;;;;;;;;1.00;0.00;;;;;;;;5071205;28;28655;-79
2024/04/07 14:31:16;;;;;;;;;3.25;1.00;;;;;;;;5071513;28;29049;-78
2024/04/07 14:33:41;;;;;;;;;5.00;3.00;;;;;;;;5073002;28;28521;-79
2024/04/07 14:36:06;;;;;;;;;1.50;1.50;;;;;;;;5073730;28;28973;-77
2024/04/07 14:38:32;;;;;;;;;1.00;1.00;;;;;;;;5073161;28;28777;-76
2024/04/07 14:40:57;;;;;;;;;1.00;0.00;;;;;;;;5054647;28;29974;-77
2024/04/07 14:43:23;;;;;;;;;1.00;1.00;;;;;;;;5061945;28;28788;-78
2024/04/07 14:45:54;;;;;;;;;1.00;1.00;;;;;;;;5083397;28;28814;-78